sensor_id;sensor_type;location;lat;lon;timestamp;pressure;altitude;pressure_sealevel;temperature;humidity
40596;BME280;26304;48.794;9.820;2023-03-31T00:04:04;95751.91;;;18.43;52.52
40596;BME280;26304;48.794;9.820;2023-03-31T00:09:48;95747.41;;;18.40;52.64
40596;BME280;26304;48.794;9.820;2023-03-31T00:15:30;95736.88;;;18.40;52.10
40596;BME280;26304;48.794;9.820;2023-03-31T00:21:14;95724.13;;;18.39;52.80
40596;BME280;26304;48.794;9.820;2023-03-31T00:27:05;95712.09;;;18.38;52.83
40596;BME280;26304;48.794;9.820;2023-03-31T00:32:48;95700.38;;;18.46;52.03
40596;BME280;26304;48.794;9.820;2023-03-31T00:38:31;95696.97;;;18.49;52.33
40596;BME280;26304;48.794;9.820;2023-03-31T00:44:16;95679.72;;;18.44;52.35
40596;BME280;26304;48.794;9.820;2023-03-31T00:50:03;95678.22;;;18.43;51.95
40596;BME280;26304;48.794;9.820;2023-03-31T00:55:48;95662.81;;;18.42;52.63
40596;BME280;26304;48.794;9.820;2023-03-31T01:01:34;95661.31;;;18.41;51.91
40596;BME280;26304;48.794;9.820;2023-03-31T01:07:21;95659.06;;;18.39;52.27
40596;BME280;26304;48.794;9.820;2023-03-31T01:13:07;95649.69;;;18.38;52.23
40596;BME280;26304;48.794;9.820;2023-03-31T01:18:51;95644.06;;;18.36;51.79
40596;BME280;26304;48.794;9.820;2023-03-31T01:25:02;95637.50;;;18.59;51.36
40596;BME280;26304;48.794;9.820;2023-03-31T01:38:11;95632.03;;;20.25;48.17
40596;BME280;26304;48.794;9.820;2023-03-31T01:44:08;95622.75;;;20.68;47.48
40596;BME280;26304;48.794;9.820;2023-03-31T01:50:01;95603.16;;;20.89;47.40
40596;BME280;26304;48.794;9.820;2023-03-31T01:55:54;95587.22;;;21.36;46.42
40596;BME280;26304;48.794;9.820;2023-03-31T02:01:48;95590.25;;;21.75;45.78
40596;BME280;26304;48.794;9.820;2023-03-31T02:07:34;95581.56;;;21.74;46.06
40596;BME280;26304;48.794;9.820;2023-03-31T02:13:20;95576.69;;;21.73;46.21
40596;BME280;26304;48.794;9.820;2023-03-31T02:19:06;95568.41;;;22.07;45.95
40596;BME280;26304;48.794;9.820;2023-03-31T02:24:51;95572.72;;;22.51;44.96
40596;BME280;26304;48.794;9.820;2023-03-31T02:30:43;95577.50;;;22.56;45.06
40596;BME280;26304;48.794;9.820;2023-03-31T02:36:28;95575.69;;;22.53;45.25
40596;BME280;26304;48.794;9.820;2023-03-31T02:42:11;95562.53;;;22.49;45.62
40596;BME280;26304;48.794;9.820;2023-03-31T02:47:54;95545.53;;;22.79;44.86
40596;BME280;26304;48.794;9.820;2023-03-31T02:53:47;95534.38;;;23.01;44.69
40596;BME280;26304;48.794;9.820;2023-03-31T02:59:42;95536.78;;;22.95;44.67
40596;BME280;26304;48.794;9.820;2023-03-31T03:05:31;95533.84;;;23.06;44.75
40596;BME280;26304;48.794;9.820;2023-03-31T03:11:22;95521.97;;;22.98;45.01
40596;BME280;26304;48.794;9.820;2023-03-31T03:17:10;95478.75;;;22.84;45.32
40596;BME280;26304;48.794;9.820;2023-03-31T03:22:55;95462.47;;;22.57;45.68
40596;BME280;26304;48.794;9.820;2023-03-31T03:28:38;95447.31;;;22.11;46.75
40596;BME280;26304;48.794;9.820;2023-03-31T03:34:21;95409.47;;;21.82;47.01
40596;BME280;26304;48.794;9.820;2023-03-31T03:40:06;95383.75;;;21.66;47.06
40596;BME280;26304;48.794;9.820;2023-03-31T03:45:51;95369.50;;;21.92;46.29
40596;BME280;26304;48.794;9.820;2023-03-31T03:51:33;95368.06;;;22.04;46.21
40596;BME280;26304;48.794;9.820;2023-03-31T03:57:16;95357.84;;;22.36;45.65
40596;BME280;26304;48.794;9.820;2023-03-31T04:02:59;95335.03;;;22.67;45.09
40596;BME280;26304;48.794;9.820;2023-03-31T04:08:42;95324.63;;;22.73;45.26
40596;BME280;26304;48.794;9.820;2023-03-31T04:14:24;95326.44;;;22.63;46.04
40596;BME280;26304;48.794;9.820;2023-03-31T04:20:09;95314.56;;;22.55;46.51
40596;BME280;26304;48.794;9.820;2023-03-31T04:25:53;95305.09;;;22.41;47.15
40596;BME280;26304;48.794;9.820;2023-03-31T04:31:35;95291.41;;;22.30;47.26
40596;BME280;26304;48.794;9.820;2023-03-31T04:37:24;95271.84;;;22.11;48.04
40596;BME280;26304;48.794;9.820;2023-03-31T04:43:08;95241.13;;;21.88;48.34
40596;BME280;26304;48.794;9.820;2023-03-31T04:48:50;95228.25;;;21.73;48.29
40596;BME280;26304;48.794;9.820;2023-03-31T04:54:34;95227.88;;;21.58;48.41
40596;BME280;26304;48.794;9.820;2023-03-31T05:00:17;95238.00;;;21.31;49.11
40596;BME280;26304;48.794;9.820;2023-03-31T05:06:00;95233.13;;;21.29;48.80
40596;BME280;26304;48.794;9.820;2023-03-31T05:11:44;95217.38;;;21.26;48.32
40596;BME280;26304;48.794;9.820;2023-03-31T05:17:29;95196.47;;;21.15;49.30
40596;BME280;26304;48.794;9.820;2023-03-31T05:23:12;95199.13;;;21.15;48.78
40596;BME280;26304;48.794;9.820;2023-03-31T05:28:56;95192.09;;;20.92;48.50
40596;BME280;26304;48.794;9.820;2023-03-31T05:34:38;95204.59;;;20.75;49.11
40596;BME280;26304;48.794;9.820;2023-03-31T05:40:23;95209.75;;;20.62;49.15
40596;BME280;26304;48.794;9.820;2023-03-31T05:46:07;95210.06;;;20.47;49.54
40596;BME280;26304;48.794;9.820;2023-03-31T05:51:49;95234.13;;;20.33;49.37
40596;BME280;26304;48.794;9.820;2023-03-31T05:57:31;95248.47;;;20.32;49.58
40596;BME280;26304;48.794;9.820;2023-03-31T06:03:15;95246.44;;;20.20;50.55
40596;BME280;26304;48.794;9.820;2023-03-31T06:08:57;95231.50;;;20.13;49.92
40596;BME280;26304;48.794;9.820;2023-03-31T06:14:40;95222.13;;;20.12;50.27
40596;BME280;26304;48.794;9.820;2023-03-31T06:20:24;95198.03;;;20.10;50.55
40596;BME280;26304;48.794;9.820;2023-03-31T06:26:07;95179.22;;;20.08;50.37
40596;BME280;26304;48.794;9.820;2023-03-31T06:31:49;95157.81;;;20.06;51.89
40596;BME280;26304;48.794;9.820;2023-03-31T06:37:33;95154.81;;;20.04;50.42
40596;BME280;26304;48.794;9.820;2023-03-31T06:43:16;95148.56;;;19.98;50.62
40596;BME280;26304;48.794;9.820;2023-03-31T06:48:58;95116.22;;;19.93;50.70
40596;BME280;26304;48.794;9.820;2023-03-31T06:54:42;95102.72;;;19.91;50.59
40596;BME280;26304;48.794;9.820;2023-03-31T07:00:25;95110.28;;;19.89;50.60
40596;BME280;26304;48.794;9.820;2023-03-31T07:06:07;95090.75;;;19.87;50.82
40596;BME280;26304;48.794;9.820;2023-03-31T07:11:51;95116.44;;;19.83;50.74
40596;BME280;26304;48.794;9.820;2023-03-31T07:17:33;95149.25;;;19.82;50.53
40596;BME280;26304;48.794;9.820;2023-03-31T07:23:18;95170.00;;;19.80;50.70
40596;BME280;26304;48.794;9.820;2023-03-31T07:29:02;95200.19;;;19.75;50.46
40596;BME280;26304;48.794;9.820;2023-03-31T07:34:44;95207.03;;;19.72;50.56
40596;BME280;26304;48.794;9.820;2023-03-31T07:40:28;95204.44;;;19.69;50.55
40596;BME280;26304;48.794;9.820;2023-03-31T07:46:16;95171.25;;;19.71;51.01
40596;BME280;26304;48.794;9.820;2023-03-31T07:51:59;95085.97;;;19.62;51.32
40596;BME280;26304;48.794;9.820;2023-03-31T07:57:41;95098.16;;;19.72;50.40
40596;BME280;26304;48.794;9.820;2023-03-31T08:03:27;95117.09;;;19.67;50.54
40596;BME280;26304;48.794;9.820;2023-03-31T08:09:12;95105.41;;;19.68;50.46
40596;BME280;26304;48.794;9.820;2023-03-31T08:14:54;95110.00;;;19.64;50.51
40596;BME280;26304;48.794;9.820;2023-03-31T08:20:38;95096.50;;;19.62;50.44
40596;BME280;26304;48.794;9.820;2023-03-31T08:26:21;95084.13;;;19.58;50.57
40596;BME280;26304;48.794;9.820;2023-03-31T08:32:05;95071.03;;;19.55;50.78
40596;BME280;26304;48.794;9.820;2023-03-31T08:37:49;95068.00;;;19.56;50.61
40596;BME280;26304;48.794;9.820;2023-03-31T08:43:35;95066.50;;;19.55;50.41
40596;BME280;26304;48.794;9.820;2023-03-31T08:49:22;95068.81;;;19.53;50.72
40596;BME280;26304;48.794;9.820;2023-03-31T08:55:11;95072.91;;;19.54;50.44
40596;BME280;26304;48.794;9.820;2023-03-31T09:01:00;95063.53;;;19.53;50.64
40596;BME280;26304;48.794;9.820;2023-03-31T09:06:50;95055.94;;;19.55;50.45
40596;BME280;26304;48.794;9.820;2023-03-31T09:12:43;95050.34;;;19.53;50.24
40596;BME280;26304;48.794;9.820;2023-03-31T09:18:32;95055.53;;;19.57;50.46
40596;BME280;26304;48.794;9.820;2023-03-31T09:24:17;95054.00;;;19.59;50.07
40596;BME280;26304;48.794;9.820;2023-03-31T09:30:08;95049.88;;;19.58;49.67
40596;BME280;26304;48.794;9.820;2023-03-31T09:35:51;95035.88;;;19.62;49.53
40596;BME280;26304;48.794;9.820;2023-03-31T09:41:34;95020.38;;;19.64;49.46
40596;BME280;26304;48.794;9.820;2023-03-31T09:47:23;95002.28;;;19.66;49.32
40596;BME280;26304;48.794;9.820;2023-03-31T09:53:15;95003.75;;;19.67;49.20
40596;BME280;26304;48.794;9.820;2023-03-31T09:59:00;95005.66;;;19.66;49.57
40596;BME280;26304;48.794;9.820;2023-03-31T10:04:45;95000.09;;;19.60;49.77
40596;BME280;26304;48.794;9.820;2023-03-31T10:10:30;94983.78;;;19.49;50.32
40596;BME280;26304;48.794;9.820;2023-03-31T10:16:21;94964.78;;;19.58;49.86
40596;BME280;26304;48.794;9.820;2023-03-31T10:22:13;94983.06;;;19.65;49.92
40596;BME280;26304;48.794;9.820;2023-03-31T10:27:56;94985.06;;;19.61;49.22
40596;BME280;26304;48.794;9.820;2023-03-31T10:33:42;94980.50;;;19.62;49.89
40596;BME280;26304;48.794;9.820;2023-03-31T10:39:30;94966.19;;;19.63;49.46
40596;BME280;26304;48.794;9.820;2023-03-31T10:45:24;94951.91;;;19.60;49.42
40596;BME280;26304;48.794;9.820;2023-03-31T10:51:11;94934.69;;;19.39;52.01
40596;BME280;26304;48.794;9.820;2023-03-31T10:56:59;94929.75;;;19.57;51.40
40596;BME280;26304;48.794;9.820;2023-03-31T11:09:06;94907.19;;;19.56;51.23
40596;BME280;26304;48.794;9.820;2023-03-31T11:15:03;94890.63;;;19.72;51.60
40596;BME280;26304;48.794;9.820;2023-03-31T11:20:56;94868.41;;;19.57;50.15
40596;BME280;26304;48.794;9.820;2023-03-31T11:26:52;94862.13;;;19.51;50.10
40596;BME280;26304;48.794;9.820;2023-03-31T11:32:49;94843.88;;;19.44;49.93
40596;BME280;26304;48.794;9.820;2023-03-31T11:38:55;94848.88;;;19.38;50.03
40596;BME280;26304;48.794;9.820;2023-03-31T11:44:42;94852.00;;;19.33;50.19
40596;BME280;26304;48.794;9.820;2023-03-31T11:50:32;94879.19;;;19.30;49.30
40596;BME280;26304;48.794;9.820;2023-03-31T11:56:19;95063.34;;;19.24;49.58
40596;BME280;26304;48.794;9.820;2023-03-31T12:02:09;95063.19;;;19.51;49.37
40596;BME280;26304;48.794;9.820;2023-03-31T12:08:01;95064.56;;;19.39;49.99
40596;BME280;26304;48.794;9.820;2023-03-31T12:13:50;95059.81;;;19.51;50.57
40596;BME280;26304;48.794;9.820;2023-03-31T12:19:43;95067.91;;;19.60;50.40
40596;BME280;26304;48.794;9.820;2023-03-31T12:25:40;95035.59;;;19.56;50.88
40596;BME280;26304;48.794;9.820;2023-03-31T12:31:26;95028.03;;;19.58;51.07
40596;BME280;26304;48.794;9.820;2023-03-31T12:43:55;94966.53;;;19.81;50.45
40596;BME280;26304;48.794;9.820;2023-03-31T12:49:54;94982.22;;;19.88;50.72
40596;BME280;26304;48.794;9.820;2023-03-31T12:55:43;94959.47;;;19.94;50.65
40596;BME280;26304;48.794;9.820;2023-03-31T13:01:28;94925.06;;;19.32;47.84
40596;BME280;26304;48.794;9.820;2023-03-31T13:07:12;94913.16;;;19.77;48.54
40596;BME280;26304;48.794;9.820;2023-03-31T13:13:15;94908.69;;;19.90;49.04
40596;BME280;26304;48.794;9.820;2023-03-31T13:18:59;94889.13;;;20.04;48.88
40596;BME280;26304;48.794;9.820;2023-03-31T13:24:42;94886.44;;;20.21;49.09
40596;BME280;26304;48.794;9.820;2023-03-31T13:30:49;94864.09;;;20.25;49.08
40596;BME280;26304;48.794;9.820;2023-03-31T13:36:56;94862.94;;;20.26;49.14
40596;BME280;26304;48.794;9.820;2023-03-31T13:42:52;94864.72;;;20.29;49.04
40596;BME280;26304;48.794;9.820;2023-03-31T13:48:50;94878.78;;;20.26;49.54
40596;BME280;26304;48.794;9.820;2023-03-31T13:54:49;94884.88;;;20.23;49.63
40596;BME280;26304;48.794;9.820;2023-03-31T14:00:45;94918.69;;;20.28;49.42
40596;BME280;26304;48.794;9.820;2023-03-31T14:06:34;94932.59;;;20.29;48.98
40596;BME280;26304;48.794;9.820;2023-03-31T14:12:22;94920.13;;;20.29;49.12
40596;BME280;26304;48.794;9.820;2023-03-31T14:18:15;94933.84;;;20.24;49.53
40596;BME280;26304;48.794;9.820;2023-03-31T14:24:04;94936.91;;;20.23;49.43
40596;BME280;26304;48.794;9.820;2023-03-31T14:29:54;94926.75;;;20.21;49.73
40596;BME280;26304;48.794;9.820;2023-03-31T14:35:43;94911.91;;;20.27;49.26
40596;BME280;26304;48.794;9.820;2023-03-31T14:41:33;94917.69;;;20.22;49.18
40596;BME280;26304;48.794;9.820;2023-03-31T14:47:22;94900.78;;;19.90;50.02
40596;BME280;26304;48.794;9.820;2023-03-31T14:53:13;94883.47;;;19.89;49.53
40596;BME280;26304;48.794;9.820;2023-03-31T14:58:56;94870.97;;;19.77;49.17
40596;BME280;26304;48.794;9.820;2023-03-31T15:04:40;94867.81;;;19.66;49.08
40596;BME280;26304;48.794;9.820;2023-03-31T15:10:31;94879.59;;;19.61;48.93
40596;BME280;26304;48.794;9.820;2023-03-31T15:16:29;94886.03;;;19.60;48.97
40596;BME280;26304;48.794;9.820;2023-03-31T15:22:15;94866.50;;;19.74;48.55
40596;BME280;26304;48.794;9.820;2023-03-31T15:28:01;94858.16;;;19.92;48.94
40596;BME280;26304;48.794;9.820;2023-03-31T15:33:46;94834.72;;;20.10;48.74
40596;BME280;26304;48.794;9.820;2023-03-31T15:39:31;94846.47;;;20.22;48.76
40596;BME280;26304;48.794;9.820;2023-03-31T15:45:36;94842.56;;;20.27;49.15
40596;BME280;26304;48.794;9.820;2023-03-31T15:51:24;94851.72;;;20.22;49.10
40596;BME280;26304;48.794;9.820;2023-03-31T15:57:08;94860.31;;;20.26;49.09
40596;BME280;26304;48.794;9.820;2023-03-31T16:02:58;94863.44;;;20.21;49.37
40596;BME280;26304;48.794;9.820;2023-03-31T16:08:45;94872.84;;;20.22;49.25
40596;BME280;26304;48.794;9.820;2023-03-31T16:14:32;94872.75;;;20.26;49.11
40596;BME280;26304;48.794;9.820;2023-03-31T16:20:19;94877.81;;;20.20;49.76
40596;BME280;26304;48.794;9.820;2023-03-31T16:26:03;94868.72;;;20.21;49.81
40596;BME280;26304;48.794;9.820;2023-03-31T16:31:48;94871.34;;;20.21;49.59
40596;BME280;26304;48.794;9.820;2023-03-31T16:37:31;94888.34;;;20.20;50.19
40596;BME280;26304;48.794;9.820;2023-03-31T16:43:15;94902.22;;;20.08;50.00
40596;BME280;26304;48.794;9.820;2023-03-31T16:48:59;94905.94;;;19.94;50.02
40596;BME280;26304;48.794;9.820;2023-03-31T16:54:42;94894.72;;;20.06;49.47
40596;BME280;26304;48.794;9.820;2023-03-31T17:00:24;94908.75;;;20.03;49.00
40596;BME280;26304;48.794;9.820;2023-03-31T17:06:10;94903.16;;;20.01;48.77
40596;BME280;26304;48.794;9.820;2023-03-31T17:11:53;94907.34;;;19.99;48.88
40596;BME280;26304;48.794;9.820;2023-03-31T17:17:35;94890.88;;;19.94;48.43
40596;BME280;26304;48.794;9.820;2023-03-31T17:23:19;94892.34;;;19.95;48.31
40596;BME280;26304;48.794;9.820;2023-03-31T17:29:02;94893.84;;;19.96;48.32
40596;BME280;26304;48.794;9.820;2023-03-31T17:34:45;94886.44;;;19.91;48.42
40596;BME280;26304;48.794;9.820;2023-03-31T17:40:30;94899.63;;;19.91;48.55
40596;BME280;26304;48.794;9.820;2023-03-31T17:46:13;94904.56;;;19.89;48.51
40596;BME280;26304;48.794;9.820;2023-03-31T17:51:57;94920.56;;;19.82;48.33
40596;BME280;26304;48.794;9.820;2023-03-31T17:57:41;94926.81;;;19.88;48.51
40596;BME280;26304;48.794;9.820;2023-03-31T18:03:26;94920.38;;;19.89;48.69
40596;BME280;26304;48.794;9.820;2023-03-31T18:09:09;94925.00;;;19.85;48.80
40596;BME280;26304;48.794;9.820;2023-03-31T18:14:53;94938.69;;;19.80;48.76
40596;BME280;26304;48.794;9.820;2023-03-31T18:20:35;94946.94;;;19.82;48.45
40596;BME280;26304;48.794;9.820;2023-03-31T18:26:18;94948.22;;;20.23;48.54
40596;BME280;26304;48.794;9.820;2023-03-31T18:32:03;94971.97;;;20.07;49.48
40596;BME280;26304;48.794;9.820;2023-03-31T18:37:45;94996.06;;;20.09;48.49
40596;BME280;26304;48.794;9.820;2023-03-31T18:43:28;94999.66;;;20.15;49.12
40596;BME280;26304;48.794;9.820;2023-03-31T18:49:12;94977.25;;;20.07;49.13
40596;BME280;26304;48.794;9.820;2023-03-31T18:54:55;94975.94;;;19.99;49.53
40596;BME280;26304;48.794;9.820;2023-03-31T19:00:38;94972.16;;;20.00;49.39
40596;BME280;26304;48.794;9.820;2023-03-31T19:06:22;94983.69;;;20.06;49.53
40596;BME280;26304;48.794;9.820;2023-03-31T19:12:05;94968.00;;;20.15;49.40
40596;BME280;26304;48.794;9.820;2023-03-31T19:17:47;94980.16;;;19.96;49.88
40596;BME280;26304;48.794;9.820;2023-03-31T19:23:31;94982.78;;;19.96;50.30
40596;BME280;26304;48.794;9.820;2023-03-31T19:29:14;94979.91;;;19.90;49.57
40596;BME280;26304;48.794;9.820;2023-03-31T19:34:56;94973.53;;;19.88;49.63
40596;BME280;26304;48.794;9.820;2023-03-31T19:40:40;94970.84;;;19.02;48.64
40596;BME280;26304;48.794;9.820;2023-03-31T19:46:23;94958.94;;;18.30;49.01
40596;BME280;26304;48.794;9.820;2023-03-31T19:52:06;94951.09;;;18.06;48.43
40596;BME280;26304;48.794;9.820;2023-03-31T19:57:49;94950.88;;;18.84;47.35
40596;BME280;26304;48.794;9.820;2023-03-31T20:03:32;94955.84;;;18.99;47.28
40596;BME280;26304;48.794;9.820;2023-03-31T20:09:14;94963.75;;;18.99;47.57
40596;BME280;26304;48.794;9.820;2023-03-31T20:14:58;94952.13;;;18.96;47.85
40596;BME280;26304;48.794;9.820;2023-03-31T20:20:41;94955.66;;;18.90;48.35
40596;BME280;26304;48.794;9.820;2023-03-31T20:26:27;94950.38;;;18.90;48.08
40596;BME280;26304;48.794;9.820;2023-03-31T20:32:11;94958.38;;;18.82;48.77
40596;BME280;26304;48.794;9.820;2023-03-31T20:37:57;94957.72;;;18.78;49.16
40596;BME280;26304;48.794;9.820;2023-03-31T20:43:39;94966.75;;;18.77;49.06
40596;BME280;26304;48.794;9.820;2023-03-31T20:49:23;94974.31;;;18.75;48.79
40596;BME280;26304;48.794;9.820;2023-03-31T20:55:06;94973.56;;;18.75;48.90
40596;BME280;26304;48.794;9.820;2023-03-31T21:00:55;94983.84;;;18.69;49.60
40596;BME280;26304;48.794;9.820;2023-03-31T21:06:42;94984.97;;;18.68;49.66
40596;BME280;26304;48.794;9.820;2023-03-31T21:12:25;94986.13;;;18.67;49.45
40596;BME280;26304;48.794;9.820;2023-03-31T21:18:07;94986.19;;;18.63;49.78
40596;BME280;26304;48.794;9.820;2023-03-31T21:23:51;94987.75;;;18.61;49.36
40596;BME280;26304;48.794;9.820;2023-03-31T21:29:34;95003.53;;;18.61;49.75
40596;BME280;26304;48.794;9.820;2023-03-31T21:35:17;94994.56;;;18.58;49.81
40596;BME280;26304;48.794;9.820;2023-03-31T21:41:04;94990.84;;;18.56;49.55
40596;BME280;26304;48.794;9.820;2023-03-31T21:46:47;94984.09;;;18.55;49.89
40596;BME280;26304;48.794;9.820;2023-03-31T21:52:29;94984.91;;;18.51;49.58
40596;BME280;26304;48.794;9.820;2023-03-31T21:58:13;94976.66;;;18.49;49.62
40596;BME280;26304;48.794;9.820;2023-03-31T22:03:55;94969.50;;;18.50;49.55
40596;BME280;26304;48.794;9.820;2023-03-31T22:09:39;94973.34;;;18.45;49.97
40596;BME280;26304;48.794;9.820;2023-03-31T22:15:23;94970.78;;;18.42;50.20
40596;BME280;26304;48.794;9.820;2023-03-31T22:21:13;94976.78;;;18.42;49.88
40596;BME280;26304;48.794;9.820;2023-03-31T22:26:55;94977.19;;;18.41;49.62
40596;BME280;26304;48.794;9.820;2023-03-31T22:32:39;94988.88;;;18.40;49.99
40596;BME280;26304;48.794;9.820;2023-03-31T22:38:21;94981.38;;;18.38;49.91
40596;BME280;26304;48.794;9.820;2023-03-31T22:44:04;94973.88;;;18.37;50.03
40596;BME280;26304;48.794;9.820;2023-03-31T22:49:47;94992.31;;;18.37;50.16
40596;BME280;26304;48.794;9.820;2023-03-31T22:55:30;94989.38;;;18.31;49.57
40596;BME280;26304;48.794;9.820;2023-03-31T23:01:15;94980.34;;;18.32;50.17
40596;BME280;26304;48.794;9.820;2023-03-31T23:06:59;94981.81;;;18.33;49.70
40596;BME280;26304;48.794;9.820;2023-03-31T23:12:41;94982.22;;;18.31;49.67
40596;BME280;26304;48.794;9.820;2023-03-31T23:18:24;94986.06;;;18.27;50.20
40596;BME280;26304;48.794;9.820;2023-03-31T23:24:08;94980.47;;;18.25;49.97
40596;BME280;26304;48.794;9.820;2023-03-31T23:29:51;94990.56;;;18.26;50.08
40596;BME280;26304;48.794;9.820;2023-03-31T23:35:33;94997.03;;;18.22;50.09
40596;BME280;26304;48.794;9.820;2023-03-31T23:41:17;94993.28;;;18.23;49.91
40596;BME280;26304;48.794;9.820;2023-03-31T23:47:00;94986.91;;;18.20;49.67
40596;BME280;26304;48.794;9.820;2023-03-31T23:52:42;94992.97;;;18.17;50.03
40596;BME280;26304;48.794;9.820;2023-03-31T23:58:26;94992.25;;;18.17;49.55
